sensor_id;sensor_type;location;lat;lon;timestamp;temperature;humidity
3630;DHT22;1831;53.626;10.012;2022-09-19T00:01:09;16.50;67.70
3630;DHT22;1831;53.626;10.012;2022-09-19T00:03:41;16.50;67.50
3630;DHT22;1831;53.626;10.012;2022-09-19T00:06:09;16.40;67.50
3630;DHT22;1831;53.626;10.012;2022-09-19T00:08:37;16.40;67.50
3630;DHT22;1831;53.626;10.012;2022-09-19T00:11:05;16.40;67.80
3630;DHT22;1831;53.626;10.012;2022-09-19T00:13:34;16.40;67.90
3630;DHT22;1831;53.626;10.012;2022-09-19T00:16:02;16.30;67.80
3630;DHT22;1831;53.626;10.012;2022-09-19T00:18:29;16.30;67.80
3630;DHT22;1831;53.626;10.012;2022-09-19T00:20:58;16.20;67.80
3630;DHT22;1831;53.626;10.012;2022-09-19T00:23:29;16.20;68.60
3630;DHT22;1831;53.626;10.012;2022-09-19T00:26:14;16.30;68.00
3630;DHT22;1831;53.626;10.012;2022-09-19T00:28:43;16.30;67.90
3630;DHT22;1831;53.626;10.012;2022-09-19T00:31:14;16.30;67.90
3630;DHT22;1831;53.626;10.012;2022-09-19T00:33:43;16.20;67.80
3630;DHT22;1831;53.626;10.012;2022-09-19T00:36:12;16.30;67.90
3630;DHT22;1831;53.626;10.012;2022-09-19T00:38:39;16.30;67.90
3630;DHT22;1831;53.626;10.012;2022-09-19T00:41:06;16.20;67.50
3630;DHT22;1831;53.626;10.012;2022-09-19T00:43:46;16.20;67.60
3630;DHT22;1831;53.626;10.012;2022-09-19T00:46:14;16.20;67.70
3630;DHT22;1831;53.626;10.012;2022-09-19T00:48:42;16.30;67.80
3630;DHT22;1831;53.626;10.012;2022-09-19T00:51:17;16.30;67.80
3630;DHT22;1831;53.626;10.012;2022-09-19T00:53:46;16.30;67.70
3630;DHT22;1831;53.626;10.012;2022-09-19T00:56:14;16.30;67.70
3630;DHT22;1831;53.626;10.012;2022-09-19T00:58:44;16.30;67.50
3630;DHT22;1831;53.626;10.012;2022-09-19T01:01:12;16.30;67.50
3630;DHT22;1831;53.626;10.012;2022-09-19T01:03:41;16.30;67.40
3630;DHT22;1831;53.626;10.012;2022-09-19T01:06:21;16.20;67.40
3630;DHT22;1831;53.626;10.012;2022-09-19T01:09:02;16.20;67.60
3630;DHT22;1831;53.626;10.012;2022-09-19T01:11:46;16.30;67.60
3630;DHT22;1831;53.626;10.012;2022-09-19T01:14:29;16.20;67.40
3630;DHT22;1831;53.626;10.012;2022-09-19T01:17:04;16.30;67.50
3630;DHT22;1831;53.626;10.012;2022-09-19T01:19:51;16.20;67.40
3630;DHT22;1831;53.626;10.012;2022-09-19T01:22:30;16.20;67.60
3630;DHT22;1831;53.626;10.012;2022-09-19T01:25:13;16.20;67.50
3630;DHT22;1831;53.626;10.012;2022-09-19T01:28:05;16.20;67.50
3630;DHT22;1831;53.626;10.012;2022-09-19T01:30:41;16.20;67.50
3630;DHT22;1831;53.626;10.012;2022-09-19T01:33:11;16.20;67.40
3630;DHT22;1831;53.626;10.012;2022-09-19T01:35:46;16.20;67.30
3630;DHT22;1831;53.626;10.012;2022-09-19T01:38:18;16.10;67.30
3630;DHT22;1831;53.626;10.012;2022-09-19T01:40:48;16.10;67.70
3630;DHT22;1831;53.626;10.012;2022-09-19T01:43:17;16.10;67.70
3630;DHT22;1831;53.626;10.012;2022-09-19T01:45:46;16.10;67.80
3630;DHT22;1831;53.626;10.012;2022-09-19T01:48:18;16.10;67.80
3630;DHT22;1831;53.626;10.012;2022-09-19T01:50:57;16.00;67.70
3630;DHT22;1831;53.626;10.012;2022-09-19T01:53:37;16.00;67.80
3630;DHT22;1831;53.626;10.012;2022-09-19T01:56:09;16.00;68.00
3630;DHT22;1831;53.626;10.012;2022-09-19T01:58:42;16.00;68.00
3630;DHT22;1831;53.626;10.012;2022-09-19T02:01:18;16.00;68.00
3630;DHT22;1831;53.626;10.012;2022-09-19T02:03:50;16.00;67.90
3630;DHT22;1831;53.626;10.012;2022-09-19T02:06:23;16.00;67.90
3630;DHT22;1831;53.626;10.012;2022-09-19T02:08:59;16.10;67.90
3630;DHT22;1831;53.626;10.012;2022-09-19T02:11:29;16.00;67.70
3630;DHT22;1831;53.626;10.012;2022-09-19T02:14:01;16.00;67.80
3630;DHT22;1831;53.626;10.012;2022-09-19T02:16:44;16.10;67.80
3630;DHT22;1831;53.626;10.012;2022-09-19T02:19:16;16.00;67.60
3630;DHT22;1831;53.626;10.012;2022-09-19T02:21:47;16.10;67.60
3630;DHT22;1831;53.626;10.012;2022-09-19T02:24:21;16.00;67.60
3630;DHT22;1831;53.626;10.012;2022-09-19T02:26:49;16.00;67.50
3630;DHT22;1831;53.626;10.012;2022-09-19T02:29:22;15.90;67.70
3630;DHT22;1831;53.626;10.012;2022-09-19T02:31:52;15.90;67.80
3630;DHT22;1831;53.626;10.012;2022-09-19T02:34:21;15.80;67.90
3630;DHT22;1831;53.626;10.012;2022-09-19T02:36:54;15.80;68.00
3630;DHT22;1831;53.626;10.012;2022-09-19T02:39:26;15.90;68.20
3630;DHT22;1831;53.626;10.012;2022-09-19T02:41:57;15.90;68.20
3630;DHT22;1831;53.626;10.012;2022-09-19T02:44:31;15.90;68.10
3630;DHT22;1831;53.626;10.012;2022-09-19T02:47:02;16.00;68.20
3630;DHT22;1831;53.626;10.012;2022-09-19T02:49:37;15.90;67.80
3630;DHT22;1831;53.626;10.012;2022-09-19T02:52:09;16.00;67.80
3630;DHT22;1831;53.626;10.012;2022-09-19T02:54:40;16.00;67.70
3630;DHT22;1831;53.626;10.012;2022-09-19T02:57:13;16.00;67.50
3630;DHT22;1831;53.626;10.012;2022-09-19T02:59:46;16.00;67.60
3630;DHT22;1831;53.626;10.012;2022-09-19T03:02:17;16.00;67.60
3630;DHT22;1831;53.626;10.012;2022-09-19T03:04:47;16.00;67.60
3630;DHT22;1831;53.626;10.012;2022-09-19T03:07:19;16.00;67.60
3630;DHT22;1831;53.626;10.012;2022-09-19T03:09:52;15.90;67.40
3630;DHT22;1831;53.626;10.012;2022-09-19T03:12:26;15.90;67.50
3630;DHT22;1831;53.626;10.012;2022-09-19T03:14:56;15.90;67.50
3630;DHT22;1831;53.626;10.012;2022-09-19T03:17:29;15.90;67.60
3630;DHT22;1831;53.626;10.012;2022-09-19T03:19:57;15.90;67.70
3630;DHT22;1831;53.626;10.012;2022-09-19T03:22:24;15.90;67.60
3630;DHT22;1831;53.626;10.012;2022-09-19T03:24:52;15.90;67.50
3630;DHT22;1831;53.626;10.012;2022-09-19T03:27:19;15.80;67.50
3630;DHT22;1831;53.626;10.012;2022-09-19T03:29:46;15.90;67.60
3630;DHT22;1831;53.626;10.012;2022-09-19T03:32:14;15.80;67.60
3630;DHT22;1831;53.626;10.012;2022-09-19T03:34:41;15.80;67.60
3630;DHT22;1831;53.626;10.012;2022-09-19T03:37:09;15.80;67.50
3630;DHT22;1831;53.626;10.012;2022-09-19T03:39:37;15.80;67.60
3630;DHT22;1831;53.626;10.012;2022-09-19T03:42:04;15.80;67.50
3630;DHT22;1831;53.626;10.012;2022-09-19T03:44:32;15.80;67.60
3630;DHT22;1831;53.626;10.012;2022-09-19T03:46:59;15.80;67.70
3630;DHT22;1831;53.626;10.012;2022-09-19T03:49:28;15.80;67.80
3630;DHT22;1831;53.626;10.012;2022-09-19T03:51:55;15.80;67.80
3630;DHT22;1831;53.626;10.012;2022-09-19T03:54:25;15.70;67.60
3630;DHT22;1831;53.626;10.012;2022-09-19T03:56:53;15.80;67.80
3630;DHT22;1831;53.626;10.012;2022-09-19T03:59:20;15.70;67.60
3630;DHT22;1831;53.626;10.012;2022-09-19T04:01:47;15.80;67.60
3630;DHT22;1831;53.626;10.012;2022-09-19T04:04:14;15.80;67.60
3630;DHT22;1831;53.626;10.012;2022-09-19T04:06:42;15.80;67.40
3630;DHT22;1831;53.626;10.012;2022-09-19T04:09:09;15.80;67.20
3630;DHT22;1831;53.626;10.012;2022-09-19T04:11:37;15.80;67.00
3630;DHT22;1831;53.626;10.012;2022-09-19T04:14:07;15.80;67.10
3630;DHT22;1831;53.626;10.012;2022-09-19T04:16:34;15.80;67.40
3630;DHT22;1831;53.626;10.012;2022-09-19T04:19:01;15.80;67.50
3630;DHT22;1831;53.626;10.012;2022-09-19T04:21:33;15.70;67.50
3630;DHT22;1831;53.626;10.012;2022-09-19T04:24:02;15.70;67.60
3630;DHT22;1831;53.626;10.012;2022-09-19T04:26:29;15.70;67.60
3630;DHT22;1831;53.626;10.012;2022-09-19T04:28:55;15.70;67.80
3630;DHT22;1831;53.626;10.012;2022-09-19T04:31:22;15.70;67.80
3630;DHT22;1831;53.626;10.012;2022-09-19T04:33:52;15.70;67.90
3630;DHT22;1831;53.626;10.012;2022-09-19T04:36:21;15.70;68.00
3630;DHT22;1831;53.626;10.012;2022-09-19T04:38:49;15.70;68.10
3630;DHT22;1831;53.626;10.012;2022-09-19T04:41:19;15.70;68.10
3630;DHT22;1831;53.626;10.012;2022-09-19T04:43:46;15.80;68.30
3630;DHT22;1831;53.626;10.012;2022-09-19T04:46:15;15.80;68.40
3630;DHT22;1831;53.626;10.012;2022-09-19T04:48:47;15.80;68.20
3630;DHT22;1831;53.626;10.012;2022-09-19T04:51:14;15.80;68.30
3630;DHT22;1831;53.626;10.012;2022-09-19T04:53:41;15.80;68.40
3630;DHT22;1831;53.626;10.012;2022-09-19T04:56:08;15.80;68.60
3630;DHT22;1831;53.626;10.012;2022-09-19T04:58:37;15.80;68.80
3630;DHT22;1831;53.626;10.012;2022-09-19T05:01:06;15.80;68.80
3630;DHT22;1831;53.626;10.012;2022-09-19T05:03:33;15.90;69.00
3630;DHT22;1831;53.626;10.012;2022-09-19T05:06:01;15.90;69.00
3630;DHT22;1831;53.626;10.012;2022-09-19T05:08:30;15.90;69.20
3630;DHT22;1831;53.626;10.012;2022-09-19T05:10:59;15.90;69.30
3630;DHT22;1831;53.626;10.012;2022-09-19T05:13:28;15.80;69.30
3630;DHT22;1831;53.626;10.012;2022-09-19T05:15:57;15.80;70.00
3630;DHT22;1831;53.626;10.012;2022-09-19T05:18:26;15.80;70.10
3630;DHT22;1831;53.626;10.012;2022-09-19T05:20:53;15.90;70.40
3630;DHT22;1831;53.626;10.012;2022-09-19T05:23:21;15.90;70.40
3630;DHT22;1831;53.626;10.012;2022-09-19T05:25:49;15.90;70.60
3630;DHT22;1831;53.626;10.012;2022-09-19T05:28:19;16.00;70.70
3630;DHT22;1831;53.626;10.012;2022-09-19T05:30:48;15.90;70.90
3630;DHT22;1831;53.626;10.012;2022-09-19T05:33:21;16.00;71.10
3630;DHT22;1831;53.626;10.012;2022-09-19T05:35:52;16.10;71.10
3630;DHT22;1831;53.626;10.012;2022-09-19T05:38:19;16.10;71.30
3630;DHT22;1831;53.626;10.012;2022-09-19T05:40:46;16.20;71.30
3630;DHT22;1831;53.626;10.012;2022-09-19T05:43:12;16.30;71.50
3630;DHT22;1831;53.626;10.012;2022-09-19T05:45:40;16.20;71.90
3630;DHT22;1831;53.626;10.012;2022-09-19T05:48:08;16.00;72.80
3630;DHT22;1831;53.626;10.012;2022-09-19T05:50:37;16.00;72.90
3630;DHT22;1831;53.626;10.012;2022-09-19T05:53:04;16.00;73.10
3630;DHT22;1831;53.626;10.012;2022-09-19T05:55:48;16.00;73.50
3630;DHT22;1831;53.626;10.012;2022-09-19T05:58:15;16.00;73.20
3630;DHT22;1831;53.626;10.012;2022-09-19T06:00:43;15.90;73.50
3630;DHT22;1831;53.626;10.012;2022-09-19T06:03:11;15.90;73.60
3630;DHT22;1831;53.626;10.012;2022-09-19T06:05:44;16.00;73.90
3630;DHT22;1831;53.626;10.012;2022-09-19T06:08:14;16.00;73.60
3630;DHT22;1831;53.626;10.012;2022-09-19T06:10:43;16.10;73.50
3630;DHT22;1831;53.626;10.012;2022-09-19T06:13:12;16.20;73.00
3630;DHT22;1831;53.626;10.012;2022-09-19T06:15:39;16.30;73.10
3630;DHT22;1831;53.626;10.012;2022-09-19T06:18:06;16.30;73.10
3630;DHT22;1831;53.626;10.012;2022-09-19T06:20:35;16.20;73.30
3630;DHT22;1831;53.626;10.012;2022-09-19T06:23:04;16.30;73.20
3630;DHT22;1831;53.626;10.012;2022-09-19T06:25:32;16.30;73.40
3630;DHT22;1831;53.626;10.012;2022-09-19T06:28:01;16.30;73.50
3630;DHT22;1831;53.626;10.012;2022-09-19T06:30:29;16.40;73.60
3630;DHT22;1831;53.626;10.012;2022-09-19T06:32:56;16.50;74.00
3630;DHT22;1831;53.626;10.012;2022-09-19T06:35:24;16.60;73.60
3630;DHT22;1831;53.626;10.012;2022-09-19T06:37:57;16.60;73.50
3630;DHT22;1831;53.626;10.012;2022-09-19T06:40:26;16.60;73.40
3630;DHT22;1831;53.626;10.012;2022-09-19T06:42:57;16.70;73.50
3630;DHT22;1831;53.626;10.012;2022-09-19T06:45:27;16.80;74.00
3630;DHT22;1831;53.626;10.012;2022-09-19T06:47:58;16.80;73.30
3630;DHT22;1831;53.626;10.012;2022-09-19T06:50:25;16.70;73.90
3630;DHT22;1831;53.626;10.012;2022-09-19T06:52:53;16.80;75.00
3630;DHT22;1831;53.626;10.012;2022-09-19T06:55:20;16.90;74.30
3630;DHT22;1831;53.626;10.012;2022-09-19T06:57:54;17.00;74.50
3630;DHT22;1831;53.626;10.012;2022-09-19T07:00:22;17.10;74.40
3630;DHT22;1831;53.626;10.012;2022-09-19T07:02:51;17.20;74.40
3630;DHT22;1831;53.626;10.012;2022-09-19T07:05:20;17.30;74.20
3630;DHT22;1831;53.626;10.012;2022-09-19T07:07:47;17.30;74.10
3630;DHT22;1831;53.626;10.012;2022-09-19T07:10:15;17.40;73.70
3630;DHT22;1831;53.626;10.012;2022-09-19T07:12:42;17.50;73.20
3630;DHT22;1831;53.626;10.012;2022-09-19T07:15:10;17.50;73.10
3630;DHT22;1831;53.626;10.012;2022-09-19T07:17:37;17.50;74.00
3630;DHT22;1831;53.626;10.012;2022-09-19T07:20:04;17.50;74.70
3630;DHT22;1831;53.626;10.012;2022-09-19T07:22:31;17.50;74.90
3630;DHT22;1831;53.626;10.012;2022-09-19T07:25:00;17.50;75.00
3630;DHT22;1831;53.626;10.012;2022-09-19T07:27:27;17.50;76.00
3630;DHT22;1831;53.626;10.012;2022-09-19T07:29:55;17.60;75.30
3630;DHT22;1831;53.626;10.012;2022-09-19T07:32:24;17.60;76.10
3630;DHT22;1831;53.626;10.012;2022-09-19T07:34:50;17.70;75.50
3630;DHT22;1831;53.626;10.012;2022-09-19T07:37:17;17.80;75.50
3630;DHT22;1831;53.626;10.012;2022-09-19T07:39:44;17.90;75.00
3630;DHT22;1831;53.626;10.012;2022-09-19T07:42:11;18.00;75.00
3630;DHT22;1831;53.626;10.012;2022-09-19T07:44:38;18.00;74.60
3630;DHT22;1831;53.626;10.012;2022-09-19T07:47:05;18.00;75.40
3630;DHT22;1831;53.626;10.012;2022-09-19T07:49:51;18.00;75.50
3630;DHT22;1831;53.626;10.012;2022-09-19T07:52:19;18.10;75.20
3630;DHT22;1831;53.626;10.012;2022-09-19T07:54:46;18.20;74.70
3630;DHT22;1831;53.626;10.012;2022-09-19T07:57:13;18.30;74.40
3630;DHT22;1831;53.626;10.012;2022-09-19T07:59:40;18.30;74.50
3630;DHT22;1831;53.626;10.012;2022-09-19T08:02:09;18.30;74.80
3630;DHT22;1831;53.626;10.012;2022-09-19T08:04:36;18.20;75.60
3630;DHT22;1831;53.626;10.012;2022-09-19T08:07:04;18.30;75.90
3630;DHT22;1831;53.626;10.012;2022-09-19T08:09:32;18.30;75.80
3630;DHT22;1831;53.626;10.012;2022-09-19T08:12:00;18.30;76.10
3630;DHT22;1831;53.626;10.012;2022-09-19T08:14:27;18.40;75.70
3630;DHT22;1831;53.626;10.012;2022-09-19T08:16:54;18.20;76.70
3630;DHT22;1831;53.626;10.012;2022-09-19T08:19:21;18.20;76.30
3630;DHT22;1831;53.626;10.012;2022-09-19T08:21:48;18.10;76.40
3630;DHT22;1831;53.626;10.012;2022-09-19T08:24:17;18.10;76.80
3630;DHT22;1831;53.626;10.012;2022-09-19T08:26:45;18.40;75.90
3630;DHT22;1831;53.626;10.012;2022-09-19T08:29:12;18.10;76.50
3630;DHT22;1831;53.626;10.012;2022-09-19T08:31:39;18.20;76.40
3630;DHT22;1831;53.626;10.012;2022-09-19T08:34:07;18.40;75.80
3630;DHT22;1831;53.626;10.012;2022-09-19T08:36:34;18.60;75.20
3630;DHT22;1831;53.626;10.012;2022-09-19T08:39:02;18.60;74.60
3630;DHT22;1831;53.626;10.012;2022-09-19T08:41:48;18.70;74.40
3630;DHT22;1831;53.626;10.012;2022-09-19T08:44:22;18.80;74.50
3630;DHT22;1831;53.626;10.012;2022-09-19T08:46:57;18.80;74.30
3630;DHT22;1831;53.626;10.012;2022-09-19T08:49:33;18.80;74.70
3630;DHT22;1831;53.626;10.012;2022-09-19T08:52:07;19.00;74.10
3630;DHT22;1831;53.626;10.012;2022-09-19T08:54:37;19.00;73.10
3630;DHT22;1831;53.626;10.012;2022-09-19T08:57:13;18.90;73.00
3630;DHT22;1831;53.626;10.012;2022-09-19T08:59:43;19.00;72.20
3630;DHT22;1831;53.626;10.012;2022-09-19T09:02:25;19.10;72.10
3630;DHT22;1831;53.626;10.012;2022-09-19T09:04:55;19.00;71.70
3630;DHT22;1831;53.626;10.012;2022-09-19T09:07:31;19.10;71.30
3630;DHT22;1831;53.626;10.012;2022-09-19T09:10:07;19.30;70.90
3630;DHT22;1831;53.626;10.012;2022-09-19T09:12:46;19.20;71.00
3630;DHT22;1831;53.626;10.012;2022-09-19T09:15:22;19.10;70.70
3630;DHT22;1831;53.626;10.012;2022-09-19T09:18:01;19.00;69.50
3630;DHT22;1831;53.626;10.012;2022-09-19T09:20:42;19.20;69.00
3630;DHT22;1831;53.626;10.012;2022-09-19T09:23:18;19.30;68.60
3630;DHT22;1831;53.626;10.012;2022-09-19T09:28:19;19.40;68.40
3630;DHT22;1831;53.626;10.012;2022-09-19T09:30:52;19.30;68.80
3630;DHT22;1831;53.626;10.012;2022-09-19T09:33:26;19.50;68.70
3630;DHT22;1831;53.626;10.012;2022-09-19T09:35:58;19.30;68.30
3630;DHT22;1831;53.626;10.012;2022-09-19T09:38:30;19.40;67.50
3630;DHT22;1831;53.626;10.012;2022-09-19T09:41:04;19.60;66.70
3630;DHT22;1831;53.626;10.012;2022-09-19T09:44:03;19.60;66.10
3630;DHT22;1831;53.626;10.012;2022-09-19T09:46:47;19.40;66.20
3630;DHT22;1831;53.626;10.012;2022-09-19T09:49:15;19.50;66.00
3630;DHT22;1831;53.626;10.012;2022-09-19T09:51:50;19.80;65.80
3630;DHT22;1831;53.626;10.012;2022-09-19T09:54:32;19.60;65.40
3630;DHT22;1831;53.626;10.012;2022-09-19T09:57:32;19.70;66.20
3630;DHT22;1831;53.626;10.012;2022-09-19T10:00:08;19.80;66.00
3630;DHT22;1831;53.626;10.012;2022-09-19T10:03:00;19.70;65.70
3630;DHT22;1831;53.626;10.012;2022-09-19T10:05:59;19.60;65.80
3630;DHT22;1831;53.626;10.012;2022-09-19T10:08:34;19.70;64.80
3630;DHT22;1831;53.626;10.012;2022-09-19T10:11:09;19.90;64.60
3630;DHT22;1831;53.626;10.012;2022-09-19T10:13:40;20.00;64.20
3630;DHT22;1831;53.626;10.012;2022-09-19T10:16:13;20.00;63.50
3630;DHT22;1831;53.626;10.012;2022-09-19T10:18:46;20.10;62.10
3630;DHT22;1831;53.626;10.012;2022-09-19T10:21:14;20.10;61.40
3630;DHT22;1831;53.626;10.012;2022-09-19T10:23:42;20.20;61.80
3630;DHT22;1831;53.626;10.012;2022-09-19T10:26:12;20.30;62.60
3630;DHT22;1831;53.626;10.012;2022-09-19T10:28:43;20.30;62.10
3630;DHT22;1831;53.626;10.012;2022-09-19T10:31:31;20.40;61.00
3630;DHT22;1831;53.626;10.012;2022-09-19T10:34:00;20.40;60.50
3630;DHT22;1831;53.626;10.012;2022-09-19T10:36:31;20.50;61.20
3630;DHT22;1831;53.626;10.012;2022-09-19T10:39:07;20.40;61.80
3630;DHT22;1831;53.626;10.012;2022-09-19T10:41:35;20.40;62.20
3630;DHT22;1831;53.626;10.012;2022-09-19T10:44:04;20.30;62.40
3630;DHT22;1831;53.626;10.012;2022-09-19T10:46:42;20.10;62.80
3630;DHT22;1831;53.626;10.012;2022-09-19T10:49:16;20.10;62.90
3630;DHT22;1831;53.626;10.012;2022-09-19T10:51:47;20.20;62.50
3630;DHT22;1831;53.626;10.012;2022-09-19T10:54:24;20.40;62.50
3630;DHT22;1831;53.626;10.012;2022-09-19T10:56:56;20.40;61.50
3630;DHT22;1831;53.626;10.012;2022-09-19T10:59:28;20.40;60.90
3630;DHT22;1831;53.626;10.012;2022-09-19T11:02:17;20.50;61.30
3630;DHT22;1831;53.626;10.012;2022-09-19T11:04:52;20.60;60.70
3630;DHT22;1831;53.626;10.012;2022-09-19T11:07:23;20.60;60.10
3630;DHT22;1831;53.626;10.012;2022-09-19T11:09:54;20.60;59.00
3630;DHT22;1831;53.626;10.012;2022-09-19T11:12:26;20.40;58.90
3630;DHT22;1831;53.626;10.012;2022-09-19T11:14:54;20.60;58.90
3630;DHT22;1831;53.626;10.012;2022-09-19T11:17:44;20.70;58.90
3630;DHT22;1831;53.626;10.012;2022-09-19T11:20:25;20.70;57.10
3630;DHT22;1831;53.626;10.012;2022-09-19T11:26:05;20.70;55.30
3630;DHT22;1831;53.626;10.012;2022-09-19T11:28:45;20.70;54.80
3630;DHT22;1831;53.626;10.012;2022-09-19T11:31:22;20.70;55.20
3630;DHT22;1831;53.626;10.012;2022-09-19T11:33:58;20.60;55.80
3630;DHT22;1831;53.626;10.012;2022-09-19T11:36:36;20.80;56.40
3630;DHT22;1831;53.626;10.012;2022-09-19T11:39:06;21.00;56.00
3630;DHT22;1831;53.626;10.012;2022-09-19T11:41:50;21.10;56.20
3630;DHT22;1831;53.626;10.012;2022-09-19T11:47:22;21.20;55.30
3630;DHT22;1831;53.626;10.012;2022-09-19T11:50:13;21.40;54.90
3630;DHT22;1831;53.626;10.012;2022-09-19T11:52:56;21.30;54.90
3630;DHT22;1831;53.626;10.012;2022-09-19T11:55:34;21.40;54.10
3630;DHT22;1831;53.626;10.012;2022-09-19T11:58:09;21.40;54.10
3630;DHT22;1831;53.626;10.012;2022-09-19T12:00:49;21.40;54.50
3630;DHT22;1831;53.626;10.012;2022-09-19T12:03:28;20.90;56.60
3630;DHT22;1831;53.626;10.012;2022-09-19T12:06:23;20.60;58.00
3630;DHT22;1831;53.626;10.012;2022-09-19T12:09:09;20.80;57.70
3630;DHT22;1831;53.626;10.012;2022-09-19T12:11:44;20.80;57.90
3630;DHT22;1831;53.626;10.012;2022-09-19T12:14:15;20.50;55.50
3630;DHT22;1831;53.626;10.012;2022-09-19T12:16:47;20.00;54.80
3630;DHT22;1831;53.626;10.012;2022-09-19T12:19:19;19.80;55.10
3630;DHT22;1831;53.626;10.012;2022-09-19T12:21:53;19.80;56.80
3630;DHT22;1831;53.626;10.012;2022-09-19T12:24:25;19.80;58.70
3630;DHT22;1831;53.626;10.012;2022-09-19T12:27:15;19.80;59.90
3630;DHT22;1831;53.626;10.012;2022-09-19T12:29:46;19.80;60.30
3630;DHT22;1831;53.626;10.012;2022-09-19T12:32:22;19.60;59.70
3630;DHT22;1831;53.626;10.012;2022-09-19T12:34:56;19.50;60.50
3630;DHT22;1831;53.626;10.012;2022-09-19T12:37:36;19.50;61.20
3630;DHT22;1831;53.626;10.012;2022-09-19T12:40:14;19.30;61.30
3630;DHT22;1831;53.626;10.012;2022-09-19T12:42:47;19.30;61.70
3630;DHT22;1831;53.626;10.012;2022-09-19T12:45:22;19.30;62.10
3630;DHT22;1831;53.626;10.012;2022-09-19T12:48:10;19.30;63.10
3630;DHT22;1831;53.626;10.012;2022-09-19T12:50:43;19.30;63.20
3630;DHT22;1831;53.626;10.012;2022-09-19T12:53:27;19.30;63.30
3630;DHT22;1831;53.626;10.012;2022-09-19T12:56:03;19.30;63.70
3630;DHT22;1831;53.626;10.012;2022-09-19T12:58:35;19.30;63.10
3630;DHT22;1831;53.626;10.012;2022-09-19T13:01:16;19.30;63.70
3630;DHT22;1831;53.626;10.012;2022-09-19T13:03:49;19.30;63.30
3630;DHT22;1831;53.626;10.012;2022-09-19T13:06:19;19.30;63.70
3630;DHT22;1831;53.626;10.012;2022-09-19T13:08:55;19.30;64.00
3630;DHT22;1831;53.626;10.012;2022-09-19T13:11:30;19.30;64.10
3630;DHT22;1831;53.626;10.012;2022-09-19T13:14:02;19.30;64.80
3630;DHT22;1831;53.626;10.012;2022-09-19T13:16:34;19.10;65.00
3630;DHT22;1831;53.626;10.012;2022-09-19T13:19:20;19.10;65.00
3630;DHT22;1831;53.626;10.012;2022-09-19T13:22:10;19.20;65.40
3630;DHT22;1831;53.626;10.012;2022-09-19T13:24:56;19.20;65.50
3630;DHT22;1831;53.626;10.012;2022-09-19T13:27:23;19.20;65.80
3630;DHT22;1831;53.626;10.012;2022-09-19T13:29:51;19.20;65.90
3630;DHT22;1831;53.626;10.012;2022-09-19T13:32:35;19.20;65.70
3630;DHT22;1831;53.626;10.012;2022-09-19T13:35:16;19.10;65.80
3630;DHT22;1831;53.626;10.012;2022-09-19T13:37:54;19.10;65.30
3630;DHT22;1831;53.626;10.012;2022-09-19T13:40:41;19.20;65.70
3630;DHT22;1831;53.626;10.012;2022-09-19T13:43:20;19.20;65.20
3630;DHT22;1831;53.626;10.012;2022-09-19T13:45:54;19.30;65.40
3630;DHT22;1831;53.626;10.012;2022-09-19T13:48:34;19.30;65.50
3630;DHT22;1831;53.626;10.012;2022-09-19T13:51:07;19.40;65.80
3630;DHT22;1831;53.626;10.012;2022-09-19T13:53:39;19.90;67.10
3630;DHT22;1831;53.626;10.012;2022-09-19T13:56:26;21.60;64.30
3630;DHT22;1831;53.626;10.012;2022-09-19T13:59:09;24.10;58.00
3630;DHT22;1831;53.626;10.012;2022-09-19T14:01:55;26.30;52.00
3630;DHT22;1831;53.626;10.012;2022-09-19T14:04:37;28.20;48.30
3630;DHT22;1831;53.626;10.012;2022-09-19T14:07:25;29.60;45.40
3630;DHT22;1831;53.626;10.012;2022-09-19T14:09:53;30.90;43.30
3630;DHT22;1831;53.626;10.012;2022-09-19T14:12:53;31.60;40.60
3630;DHT22;1831;53.626;10.012;2022-09-19T14:15:42;32.10;39.10
3630;DHT22;1831;53.626;10.012;2022-09-19T14:18:42;32.30;38.30
3630;DHT22;1831;53.626;10.012;2022-09-19T14:21:49;31.70;38.00
3630;DHT22;1831;53.626;10.012;2022-09-19T14:24:02;30.40;39.70
3630;DHT22;1831;53.626;10.012;2022-09-19T14:26:41;29.00;42.20
3630;DHT22;1831;53.626;10.012;2022-09-19T14:29:24;28.00;44.20
3630;DHT22;1831;53.626;10.012;2022-09-19T14:32:06;27.30;45.30
3630;DHT22;1831;53.626;10.012;2022-09-19T14:37:52;26.50;47.70
3630;DHT22;1831;53.626;10.012;2022-09-19T14:40:31;26.40;47.10
3630;DHT22;1831;53.626;10.012;2022-09-19T14:46:09;26.60;48.30
3630;DHT22;1831;53.626;10.012;2022-09-19T14:48:42;27.50;46.50
3630;DHT22;1831;53.626;10.012;2022-09-19T14:51:27;27.70;45.00
3630;DHT22;1831;53.626;10.012;2022-09-19T14:54:05;27.80;44.40
3630;DHT22;1831;53.626;10.012;2022-09-19T14:56:33;27.60;45.20
3630;DHT22;1831;53.626;10.012;2022-09-19T14:59:00;27.40;45.20
3630;DHT22;1831;53.626;10.012;2022-09-19T15:01:33;27.40;45.20
3630;DHT22;1831;53.626;10.012;2022-09-19T15:04:09;27.90;45.60
3630;DHT22;1831;53.626;10.012;2022-09-19T15:06:44;28.50;44.90
3630;DHT22;1831;53.626;10.012;2022-09-19T15:09:19;28.50;43.40
3630;DHT22;1831;53.626;10.012;2022-09-19T15:11:50;27.80;44.40
3630;DHT22;1831;53.626;10.012;2022-09-19T15:14:20;27.00;46.00
3630;DHT22;1831;53.626;10.012;2022-09-19T15:16:50;26.20;45.00
3630;DHT22;1831;53.626;10.012;2022-09-19T15:19:36;25.40;44.80
3630;DHT22;1831;53.626;10.012;2022-09-19T15:22:04;24.70;46.40
3630;DHT22;1831;53.626;10.012;2022-09-19T15:24:33;24.70;46.70
3630;DHT22;1831;53.626;10.012;2022-09-19T15:27:00;25.40;46.80
3630;DHT22;1831;53.626;10.012;2022-09-19T15:29:29;26.20;44.50
3630;DHT22;1831;53.626;10.012;2022-09-19T15:32:17;27.10;43.10
3630;DHT22;1831;53.626;10.012;2022-09-19T15:34:48;27.40;41.80
3630;DHT22;1831;53.626;10.012;2022-09-19T15:37:19;27.30;41.80
3630;DHT22;1831;53.626;10.012;2022-09-19T15:39:48;26.80;41.70
3630;DHT22;1831;53.626;10.012;2022-09-19T15:42:16;26.30;42.40
3630;DHT22;1831;53.626;10.012;2022-09-19T15:44:45;25.70;43.20
3630;DHT22;1831;53.626;10.012;2022-09-19T15:47:16;25.10;43.80
3630;DHT22;1831;53.626;10.012;2022-09-19T15:49:45;24.50;44.70
3630;DHT22;1831;53.626;10.012;2022-09-19T15:52:16;24.10;46.10
3630;DHT22;1831;53.626;10.012;2022-09-19T15:54:47;23.80;47.00
3630;DHT22;1831;53.626;10.012;2022-09-19T15:57:24;23.50;47.80
3630;DHT22;1831;53.626;10.012;2022-09-19T15:59:59;23.10;49.50
3630;DHT22;1831;53.626;10.012;2022-09-19T16:02:33;23.00;50.20
3630;DHT22;1831;53.626;10.012;2022-09-19T16:05:04;22.90;51.60
3630;DHT22;1831;53.626;10.012;2022-09-19T16:07:37;22.90;51.60
3630;DHT22;1831;53.626;10.012;2022-09-19T16:10:23;22.70;51.40
3630;DHT22;1831;53.626;10.012;2022-09-19T16:12:52;22.40;51.90
3630;DHT22;1831;53.626;10.012;2022-09-19T16:15:27;22.20;52.50
3630;DHT22;1831;53.626;10.012;2022-09-19T16:18:15;22.10;53.00
3630;DHT22;1831;53.626;10.012;2022-09-19T16:21:03;21.80;53.70
3630;DHT22;1831;53.626;10.012;2022-09-19T16:23:39;21.90;54.20
3630;DHT22;1831;53.626;10.012;2022-09-19T16:26:07;22.00;54.60
3630;DHT22;1831;53.626;10.012;2022-09-19T16:28:37;22.20;54.90
3630;DHT22;1831;53.626;10.012;2022-09-19T16:31:19;22.20;55.90
3630;DHT22;1831;53.626;10.012;2022-09-19T16:33:51;22.00;55.40
3630;DHT22;1831;53.626;10.012;2022-09-19T16:36:19;21.80;55.80